Sharon Center, Ohio
Current Conditions -  °F | °C
As of 3:54 PM on Thursday 27 Nov 2014 (Local Time) from KAKR Reporting Station
Overcast Overcast  
Wind Chill: 22°   Ceiling: 3000
Heat Index: 32°   Visibility: 10mi
Dew Point: 22°   Wind: 14mph
Humidity: 66%   Direction: 310°NW
Pressure: 30.15"   Gusts: NA
Location:  41.1°N, 81.74°W
Report Text: KAKR 272054Z AUTO 31012KT 10SM BKN030 BKN037 OVC047 00/M06 A3015 RMK AO2 SLP218 60000 T00001056 53010 $
Loading
Personal Weather Stations






























Interactive Weather Map New forecast layout! Learn more

10-Day Weather Forecast

Advertisements
Track Severe Weather on mobile